Time;durP1;ratioP1;P1;durP2;ratioP2;P2;SDS_P1;SDS_P2;PMS_P1;PMS_P2;Temp;Humidity;BMP_temperature;BMP_pressure;BME280_temperature;BME280_humidity;BME280_pressure;Samples;Min_cycle;Max_cycle;Signal;HPM_P1;HPM_P2
2022/06/21 00:00:27;;;;;;;;;;;18.70;62.40;;;;;;5071096;28;19915;-78
2022/06/21 00:02:54;;;;;;;;;;;18.70;62.40;;;;;;5071738;28;19908;-79
2022/06/21 00:05:23;;;;;;;;;;;18.70;62.50;;;;;;5072438;28;20623;-79
2022/06/21 00:07:48;;;;;;;;;;;18.60;62.50;;;;;;5070106;28;19966;-79
2022/06/21 00:10:15;;;;;;;;;;;18.60;62.60;;;;;;5067786;28;19916;-79
2022/06/21 00:12:41;;;;;;;;;;;18.60;62.80;;;;;;5069746;28;19916;-79
2022/06/21 00:15:06;;;;;;;;;;;18.50;62.70;;;;;;5072217;28;20308;-79
2022/06/21 00:17:32;;;;;;;;;;;18.50;62.90;;;;;;5070013;28;19924;-79
2022/06/21 00:19:57;;;;;;;;;;;18.50;62.90;;;;;;5065598;28;19913;-79
2022/06/21 00:22:23;;;;;;;;;;;18.40;62.80;;;;;;5066577;28;20019;-79
2022/06/21 00:24:48;;;;;;;;;;;18.40;62.80;;;;;;5071574;28;20349;-79
2022/06/21 00:27:15;;;;;;;;;;;18.40;62.90;;;;;;5070294;28;19920;-79
2022/06/21 00:29:41;;;;;;;;;;;18.40;63.10;;;;;;5070633;28;19952;-79
2022/06/21 00:32:11;;;;;;;;;;;18.30;63.10;;;;;;5069769;28;19962;-79
2022/06/21 00:34:36;;;;;;;;;;;18.30;63.10;;;;;;5070561;28;20272;-80
2022/06/21 00:37:02;;;;;;;;;;;18.30;63.20;;;;;;5069776;28;19921;-80
2022/06/21 00:39:28;;;;;;;;;;;18.20;63.30;;;;;;5069564;28;19927;-80
2022/06/21 00:41:53;;;;;;;;;;;18.20;63.60;;;;;;5071445;28;19908;-80
2022/06/21 00:44:32;;;;;;;;;;;18.20;63.60;;;;;;5069192;28;20371;-80
2022/06/21 00:47:03;;;;;;;;;;;18.20;63.40;;;;;;5068740;28;20337;-80
2022/06/21 00:49:31;;;;;;;;;;;18.10;63.60;;;;;;5066988;28;20014;-80
2022/06/21 00:52:02;;;;;;;;;;;18.10;63.80;;;;;;5070565;28;20034;-80
2022/06/21 00:54:47;;;;;;;;;;;18.10;64.40;;;;;;5065863;28;20365;-80
2022/06/21 00:57:16;;;;;;;;;;;18.00;63.80;;;;;;5053816;28;19974;-79
2022/06/21 00:59:41;;;;;;;;;;;18.00;64.00;;;;;;5062923;28;19953;-80
2022/06/21 01:02:16;;;;;;;;;;;18.00;64.00;;;;;;5071457;28;19947;-80
2022/06/21 01:04:47;;;;;;;;;;;17.90;64.00;;;;;;5066029;28;19916;-80
2022/06/21 01:07:13;;;;;;;;;;;18.00;64.20;;;;;;5063534;28;19924;-79
2022/06/21 01:09:42;;;;;;;;;;;17.90;64.10;;;;;;5068802;28;19928;-80
2022/06/21 01:12:07;;;;;;;;;;;17.90;64.00;;;;;;5070555;28;20011;-80
2022/06/21 01:14:35;;;;;;;;;;;17.90;64.10;;;;;;5066226;28;20031;-80
2022/06/21 01:17:01;;;;;;;;;;;17.80;64.20;;;;;;5066070;28;20408;-80
2022/06/21 01:19:44;;;;;;;;;;;17.80;64.70;;;;;;5066124;28;20004;-80
2022/06/21 01:22:22;;;;;;;;;;;17.80;65.00;;;;;;5068811;28;19908;-79
2022/06/21 01:25:06;;;;;;;;;;;17.70;64.40;;;;;;5068013;28;20384;-79
2022/06/21 01:27:31;;;;;;;;;;;17.70;65.10;;;;;;5066428;28;20400;-80
2022/06/21 01:29:57;;;;;;;;;;;17.70;65.10;;;;;;5066924;28;19920;-79
2022/06/21 01:32:23;;;;;;;;;;;17.70;65.20;;;;;;5071150;28;19915;-80
2022/06/21 01:34:48;;;;;;;;;;;17.60;65.00;;;;;;5083400;28;20575;-79
2022/06/21 01:37:18;;;;;;;;;;;17.60;65.20;;;;;;5067940;28;20512;-79
2022/06/21 01:40:16;;;;;;;;;;;17.60;65.00;;;;;;5066297;28;19912;-80
2022/06/21 01:42:47;;;;;;;;;;;17.60;64.70;;;;;;5041736;28;20604;-79
2022/06/21 01:45:16;;;;;;;;;;;17.50;65.70;;;;;;5067207;28;19919;-79
2022/06/21 01:47:55;;;;;;;;;;;17.50;65.70;;;;;;5068950;28;20012;-80
2022/06/21 01:50:22;;;;;;;;;;;17.60;65.90;;;;;;5061623;28;19916;-79
2022/06/21 01:52:50;;;;;;;;;;;17.50;65.90;;;;;;5070235;28;19924;-79
2022/06/21 01:55:23;;;;;;;;;;;17.50;66.10;;;;;;5067348;28;19966;-80
2022/06/21 01:57:50;;;;;;;;;;;17.50;66.10;;;;;;5069358;28;19912;-80
2022/06/21 02:00:15;;;;;;;;;;;17.40;66.10;;;;;;5066892;28;19931;-79
2022/06/21 02:02:55;;;;;;;;;;;17.40;66.20;;;;;;5069207;28;19908;-79
2022/06/21 02:05:27;;;;;;;;;;;17.40;66.10;;;;;;5059416;28;19935;-80
2022/06/21 02:07:56;;;;;;;;;;;17.40;66.30;;;;;;5063167;28;19917;-79
2022/06/21 02:10:26;;;;;;;;;;;17.30;66.30;;;;;;5067090;28;19919;-80
2022/06/21 02:13:05;;;;;;;;;;;17.30;66.30;;;;;;5060572;28;20078;-80
2022/06/21 02:15:33;;;;;;;;;;;17.30;66.40;;;;;;5064272;28;19916;-80
2022/06/21 02:18:00;;;;;;;;;;;17.30;66.40;;;;;;5053421;28;20329;-80
2022/06/21 02:20:43;;;;;;;;;;;17.30;66.30;;;;;;5065436;28;19912;-79
2022/06/21 02:23:12;;;;;;;;;;;17.30;66.40;;;;;;5067687;28;19924;-79
2022/06/21 02:25:39;;;;;;;;;;;17.20;66.40;;;;;;5067593;28;19919;-80
2022/06/21 02:28:07;;;;;;;;;;;17.20;66.40;;;;;;5063753;28;19966;-80
2022/06/21 02:30:33;;;;;;;;;;;17.20;66.60;;;;;;5065610;28;19928;-80
2022/06/21 02:33:00;;;;;;;;;;;17.10;66.50;;;;;;5057957;28;19917;-79
2022/06/21 02:35:25;;;;;;;;;;;17.10;66.50;;;;;;5064273;28;19912;-79
2022/06/21 02:37:53;;;;;;;;;;;17.10;66.70;;;;;;5066264;28;19913;-80
2022/06/21 02:40:20;;;;;;;;;;;17.10;66.70;;;;;;5068641;28;20285;-80
2022/06/21 02:42:47;;;;;;;;;;;17.10;66.70;;;;;;5066624;28;19912;-80
2022/06/21 02:45:38;;;;;;;;;;;17.10;66.80;;;;;;5068341;28;19908;-80
2022/06/21 02:48:08;;;;;;;;;;;17.10;66.80;;;;;;5053006;28;19974;-80
2022/06/21 02:50:42;;;;;;;;;;;17.00;66.80;;;;;;5068911;28;19920;-80
2022/06/21 02:53:19;;;;;;;;;;;17.00;66.80;;;;;;5065306;28;20614;-79
2022/06/21 02:55:45;;;;;;;;;;;17.00;66.90;;;;;;5067117;28;19958;-80
2022/06/21 02:58:10;;;;;;;;;;;16.90;66.90;;;;;;5064090;28;19920;-80
2022/06/21 03:00:36;;;;;;;;;;;16.90;66.90;;;;;;5067282;28;19909;-80
2022/06/21 03:03:02;;;;;;;;;;;16.90;66.80;;;;;;5065306;28;19924;-79
2022/06/21 03:05:28;;;;;;;;;;;16.90;67.00;;;;;;5064458;28;19967;-80
2022/06/21 03:07:59;;;;;;;;;;;16.90;67.10;;;;;;5065578;28;19924;-80
2022/06/21 03:10:27;;;;;;;;;;;16.90;67.10;;;;;;5070649;28;19916;-80
2022/06/21 03:13:00;;;;;;;;;;;16.80;67.10;;;;;;5068721;28;19908;-80
2022/06/21 03:15:26;;;;;;;;;;;16.80;67.20;;;;;;5064308;28;19912;-80
2022/06/21 03:17:53;;;;;;;;;;;16.80;67.20;;;;;;5071714;28;20280;-79
2022/06/21 03:20:19;;;;;;;;;;;16.80;67.20;;;;;;5064994;28;20467;-80
2022/06/21 03:22:45;;;;;;;;;;;16.70;67.30;;;;;;5071633;28;19999;-79
2022/06/21 03:25:29;;;;;;;;;;;16.70;67.30;;;;;;5068472;28;19919;-80
2022/06/21 03:27:58;;;;;;;;;;;16.70;67.30;;;;;;5067284;28;20442;-81
2022/06/21 03:30:29;;;;;;;;;;;16.70;67.30;;;;;;5065076;28;19917;-79
2022/06/21 03:32:55;;;;;;;;;;;16.70;67.30;;;;;;5070310;28;19954;-80
2022/06/21 03:35:21;;;;;;;;;;;16.70;67.30;;;;;;5062830;28;19959;-79
2022/06/21 03:37:47;;;;;;;;;;;16.70;67.40;;;;;;5069229;28;19952;-79
2022/06/21 03:43:03;;;;;;;;;;;16.60;67.40;;;;;;5067695;28;20574;-80
2022/06/21 03:45:31;;;;;;;;;;;16.60;67.50;;;;;;5066353;28;19927;-80
2022/06/21 03:48:03;;;;;;;;;;;16.60;67.40;;;;;;5066370;28;19912;-80
2022/06/21 03:50:32;;;;;;;;;;;16.60;67.60;;;;;;5059450;28;19924;-79
2022/06/21 03:53:07;;;;;;;;;;;16.60;67.60;;;;;;5066132;28;19964;-80
2022/06/21 03:55:33;;;;;;;;;;;16.50;67.60;;;;;;5065417;28;19919;-80
2022/06/21 03:58:05;;;;;;;;;;;16.60;67.60;;;;;;5066636;28;19912;-80
2022/06/21 04:00:35;;;;;;;;;;;16.50;67.60;;;;;;5066689;28;20610;-79
2022/06/21 04:03:14;;;;;;;;;;;16.50;67.70;;;;;;5069275;28;19920;-80
2022/06/21 04:05:48;;;;;;;;;;;16.50;67.80;;;;;;5061094;28;20441;-80
2022/06/21 04:08:18;;;;;;;;;;;16.50;67.70;;;;;;5065071;28;19923;-80
2022/06/21 04:10:51;;;;;;;;;;;16.50;67.80;;;;;;5065242;28;19920;-79
2022/06/21 04:13:19;;;;;;;;;;;16.50;67.80;;;;;;5068748;28;19912;-80
2022/06/21 04:16:04;;;;;;;;;;;16.40;67.70;;;;;;5061214;28;19948;-80
2022/06/21 04:18:32;;;;;;;;;;;16.40;67.70;;;;;;5066856;28;19958;-80
2022/06/21 04:21:02;;;;;;;;;;;16.50;67.90;;;;;;5063223;28;19916;-79
2022/06/21 04:23:36;;;;;;;;;;;16.40;67.80;;;;;;5068642;28;20486;-79
2022/06/21 04:26:05;;;;;;;;;;;16.40;67.90;;;;;;5066527;28;19943;-79
2022/06/21 04:28:37;;;;;;;;;;;16.40;67.90;;;;;;5069672;28;20390;-79
2022/06/21 04:31:10;;;;;;;;;;;16.40;67.90;;;;;;5061707;28;19920;-80
2022/06/21 04:33:42;;;;;;;;;;;16.40;68.10;;;;;;5066992;28;19917;-80
2022/06/21 04:36:23;;;;;;;;;;;16.40;68.00;;;;;;5067416;28;19913;-80
2022/06/21 04:39:03;;;;;;;;;;;16.30;67.90;;;;;;5070210;28;19970;-79
2022/06/21 04:41:55;;;;;;;;;;;16.30;67.70;;;;;;5063442;28;20012;-80
2022/06/21 04:44:25;;;;;;;;;;;16.30;67.80;;;;;;5053832;28;19913;-80
2022/06/21 04:47:06;;;;;;;;;;;16.30;67.90;;;;;;5067513;28;19935;-80
2022/06/21 04:49:41;;;;;;;;;;;16.30;68.00;;;;;;5068655;28;19964;-79
2022/06/21 04:52:13;;;;;;;;;;;16.30;67.90;;;;;;5067812;28;19916;-79
2022/06/21 04:54:39;;;;;;;;;;;16.20;68.00;;;;;;5063955;28;19920;-80
2022/06/21 04:57:10;;;;;;;;;;;16.20;68.00;;;;;;5065826;28;19920;-79
2022/06/21 04:59:56;;;;;;;;;;;16.20;67.90;;;;;;5067048;28;19920;-79
2022/06/21 05:02:22;;;;;;;;;;;16.20;68.10;;;;;;5066672;28;19916;-80
2022/06/21 05:04:50;;;;;;;;;;;16.20;68.20;;;;;;5066727;28;19981;-80
2022/06/21 05:07:21;;;;;;;;;;;16.20;68.10;;;;;;5066923;28;19909;-79
2022/06/21 05:09:47;;;;;;;;;;;16.20;68.10;;;;;;5067459;28;19961;-80
2022/06/21 05:12:12;;;;;;;;;;;16.20;68.20;;;;;;5069787;28;19912;-79
2022/06/21 05:14:41;;;;;;;;;;;16.20;68.30;;;;;;5066354;28;19917;-79
2022/06/21 05:17:12;;;;;;;;;;;16.20;68.30;;;;;;5069413;28;19912;-79
2022/06/21 05:19:41;;;;;;;;;;;16.30;68.40;;;;;;5065390;28;20592;-79
2022/06/21 05:22:15;;;;;;;;;;;16.20;68.30;;;;;;5065817;28;19920;-80
2022/06/21 05:24:41;;;;;;;;;;;16.20;68.40;;;;;;5063913;28;20394;-79
2022/06/21 05:27:15;;;;;;;;;;;16.20;68.40;;;;;;5067591;28;19995;-79
2022/06/21 05:29:41;;;;;;;;;;;16.30;68.70;;;;;;5063564;28;19981;-80
2022/06/21 05:32:10;;;;;;;;;;;16.20;68.50;;;;;;5068417;28;19908;-79
2022/06/21 05:34:43;;;;;;;;;;;16.20;68.60;;;;;;5066080;28;19912;-79
2022/06/21 05:37:18;;;;;;;;;;;16.20;68.60;;;;;;5087050;28;19920;-79
2022/06/21 05:39:45;;;;;;;;;;;16.20;68.60;;;;;;5063949;28;19963;-79
2022/06/21 05:42:13;;;;;;;;;;;16.20;68.70;;;;;;5064961;28;19908;-79
2022/06/21 05:44:47;;;;;;;;;;;16.20;68.60;;;;;;5064460;28;19928;-79
2022/06/21 05:47:25;;;;;;;;;;;16.30;68.70;;;;;;5066934;28;20315;-79
2022/06/21 05:49:51;;;;;;;;;;;16.30;68.60;;;;;;5064400;28;20643;-79
2022/06/21 05:52:19;;;;;;;;;;;16.30;68.60;;;;;;5067738;28;19912;-79
2022/06/21 05:54:51;;;;;;;;;;;16.30;68.70;;;;;;5061032;28;19924;-79
2022/06/21 05:57:19;;;;;;;;;;;16.30;68.60;;;;;;5065243;28;19994;-79
2022/06/21 05:59:45;;;;;;;;;;;16.30;68.70;;;;;;5062789;28;19916;-79
2022/06/21 06:02:34;;;;;;;;;;;16.30;68.70;;;;;;5068292;28;19962;-79
2022/06/21 06:05:26;;;;;;;;;;;16.30;68.60;;;;;;5064349;28;19912;-79
2022/06/21 06:07:54;;;;;;;;;;;16.30;68.70;;;;;;5057235;28;19920;-80
2022/06/21 06:10:21;;;;;;;;;;;16.30;68.70;;;;;;5064510;28;19912;-79
2022/06/21 06:12:49;;;;;;;;;;;16.30;68.60;;;;;;5067781;28;19951;-80
2022/06/21 06:15:19;;;;;;;;;;;16.40;68.60;;;;;;5064610;28;20389;-79
2022/06/21 06:17:50;;;;;;;;;;;16.40;68.60;;;;;;5067227;28;20600;-79
2022/06/21 06:20:48;;;;;;;;;;;16.40;68.60;;;;;;5063520;28;19939;-78
2022/06/21 06:23:32;;;;;;;;;;;16.40;68.60;;;;;;5035234;28;19917;-79
2022/06/21 06:25:58;;;;;;;;;;;16.40;68.50;;;;;;5060069;28;20031;-79
2022/06/21 06:28:23;;;;;;;;;;;16.40;68.60;;;;;;5064892;28;19999;-79
2022/06/21 06:30:58;;;;;;;;;;;16.40;68.60;;;;;;5064208;28;19956;-79
2022/06/21 06:33:38;;;;;;;;;;;16.50;68.50;;;;;;5067242;28;19917;-79
2022/06/21 06:36:06;;;;;;;;;;;16.50;68.50;;;;;;5062087;28;19912;-79
2022/06/21 06:38:32;;;;;;;;;;;16.50;68.40;;;;;;5065542;28;19916;-78
2022/06/21 06:41:08;;;;;;;;;;;16.50;68.40;;;;;;5064254;28;19916;-79
2022/06/21 06:43:44;;;;;;;;;;;16.50;68.40;;;;;;5066197;28;20078;-78
2022/06/21 06:46:13;;;;;;;;;;;16.50;68.40;;;;;;5056271;28;19974;-79
2022/06/21 06:48:39;;;;;;;;;;;16.60;68.40;;;;;;5066040;28;20836;-79
2022/06/21 06:51:25;;;;;;;;;;;16.60;68.30;;;;;;5064543;28;20018;-78
2022/06/21 06:53:52;;;;;;;;;;;16.60;68.30;;;;;;5059519;28;19921;-79
2022/06/21 06:56:21;;;;;;;;;;;16.60;68.30;;;;;;5064070;28;19919;-78
2022/06/21 06:59:10;;;;;;;;;;;16.60;68.20;;;;;;5065438;28;20554;-79
2022/06/21 07:01:50;;;;;;;;;;;16.60;68.10;;;;;;5051914;28;19912;-78
2022/06/21 07:04:17;;;;;;;;;;;16.70;68.10;;;;;;5067869;28;19916;-78
2022/06/21 07:06:49;;;;;;;;;;;16.70;68.10;;;;;;5064433;28;20680;-79
2022/06/21 07:09:40;;;;;;;;;;;16.70;68.00;;;;;;5063807;28;20735;-80
2022/06/21 07:12:08;;;;;;;;;;;16.70;67.90;;;;;;5058989;28;20384;-79
2022/06/21 07:14:35;;;;;;;;;;;16.70;67.90;;;;;;5073637;28;19928;-79
2022/06/21 07:17:13;;;;;;;;;;;16.70;67.90;;;;;;5063522;28;19917;-79
2022/06/21 07:19:39;;;;;;;;;;;16.80;67.80;;;;;;5067164;28;19912;-78
2022/06/21 07:22:12;;;;;;;;;;;16.80;67.80;;;;;;5066585;28;19919;-78
2022/06/21 07:24:38;;;;;;;;;;;16.80;67.70;;;;;;5063287;28;19927;-78
2022/06/21 07:27:05;;;;;;;;;;;16.90;67.60;;;;;;5064688;28;19908;-79
2022/06/21 07:29:38;;;;;;;;;;;16.80;67.50;;;;;;5064376;28;20395;-78
2022/06/21 08:47:01;;;;;;;;;;;17.70;65.50;;;;;;5104861;27;19953;-76
2022/06/21 08:49:50;;;;;;;;;;;17.90;65.60;;;;;;5087925;27;19913;-76
2022/06/21 08:52:36;;;;;;;;;;;17.90;65.60;;;;;;5089095;28;19915;-76
2022/06/21 08:55:20;;;;;;;;;;;18.00;65.30;;;;;;5039418;28;20398;-76
2022/06/21 08:57:46;;;;;;;;;;;18.00;65.20;;;;;;5083670;28;20530;-76
2022/06/21 09:00:47;;;;;;;;;;;18.10;65.10;;;;;;5079772;28;19995;-76
2022/06/21 09:03:12;;;;;;;;;;;18.10;65.00;;;;;;5044155;28;19921;-76
2022/06/21 09:05:47;;;;;;;;;;;18.20;64.90;;;;;;5076003;28;20011;-77
2022/06/21 09:08:19;;;;;;;;;;;18.20;64.90;;;;;;5078455;28;20322;-76
2022/06/21 09:10:44;;;;;;;;;;;18.20;65.30;;;;;;5083931;28;19913;-76
2022/06/21 09:13:10;;;;;;;;;;;18.40;64.70;;;;;;5084650;28;19927;-76
2022/06/21 09:15:54;;;;;;;;;;;18.40;64.60;;;;;;5085092;28;20381;-76
2022/06/21 09:18:38;;;;;;;;;;;18.50;64.40;;;;;;5084071;28;19912;-76
2022/06/21 09:21:07;;;;;;;;;;;18.50;64.30;;;;;;5099165;28;19989;-76
2022/06/21 09:23:51;;;;;;;;;;;18.60;64.30;;;;;;5083150;28;19935;-76
2022/06/21 09:26:28;;;;;;;;;;;18.60;64.80;;;;;;5080011;28;20011;-76
2022/06/21 09:29:01;;;;;;;;;;;18.70;64.10;;;;;;5084476;28;20030;-76
2022/06/21 09:31:30;;;;;;;;;;;18.70;64.00;;;;;;5084680;28;19912;-76
2022/06/21 09:34:00;;;;;;;;;;;18.80;64.00;;;;;;5082314;28;19908;-76
2022/06/21 09:36:31;;;;;;;;;;;18.80;64.00;;;;;;5083518;28;19986;-76
2022/06/21 09:39:15;;;;;;;;;;;18.90;63.90;;;;;;5083437;28;19912;-76
2022/06/21 09:41:46;;;;;;;;;;;18.90;63.90;;;;;;5084097;28;20364;-76
2022/06/21 09:44:21;;;;;;;;;;;18.90;63.90;;;;;;5074616;28;20296;-76
2022/06/21 09:46:53;;;;;;;;;;;18.90;63.80;;;;;;5076959;28;19920;-76
2022/06/21 09:49:29;;;;;;;;;;;19.10;63.80;;;;;;5070141;28;20529;-76
2022/06/21 09:51:58;;;;;;;;;;;19.10;63.70;;;;;;5069917;28;20700;-77
2022/06/21 09:54:34;;;;;;;;;;;19.20;63.80;;;;;;5069136;28;19923;-77
2022/06/21 09:57:05;;;;;;;;;;;19.30;63.50;;;;;;5070010;28;19919;-77
2022/06/21 09:59:47;;;;;;;;;;;19.40;63.40;;;;;;5068432;28;20015;-77
2022/06/21 10:02:18;;;;;;;;;;;19.40;63.30;;;;;;5068503;28;19988;-77
2022/06/21 10:04:55;;;;;;;;;;;19.50;63.40;;;;;;5068848;28;20565;-77
2022/06/21 10:07:23;;;;;;;;;;;19.50;63.30;;;;;;5065066;28;20007;-77
2022/06/21 10:09:48;;;;;;;;;;;19.50;63.30;;;;;;5069507;28;19959;-77
2022/06/21 10:12:29;;;;;;;;;;;19.60;63.50;;;;;;5068374;28;20377;-77
2022/06/21 10:15:01;;;;;;;;;;;19.70;63.30;;;;;;5068958;28;19908;-77
2022/06/21 10:17:33;;;;;;;;;;;19.70;63.30;;;;;;5067398;28;19913;-77
2022/06/21 10:20:07;;;;;;;;;;;19.70;63.30;;;;;;5063632;28;20003;-77
2022/06/21 10:22:45;;;;;;;;;;;19.80;63.40;;;;;;5067198;28;19913;-77
2022/06/21 10:25:26;;;;;;;;;;;19.90;63.30;;;;;;5067059;28;19924;-77
2022/06/21 10:28:01;;;;;;;;;;;20.00;63.10;;;;;;5061675;28;19919;-78
2022/06/21 10:30:59;;;;;;;;;;;20.10;62.60;;;;;;5062049;28;20718;-78
2022/06/21 10:33:27;;;;;;;;;;;20.30;62.50;;;;;;5050946;28;19917;-78
2022/06/21 10:35:53;;;;;;;;;;;20.40;62.30;;;;;;5058298;28;19939;-78
2022/06/21 10:38:19;;;;;;;;;;;20.50;62.10;;;;;;5064619;28;20552;-79
2022/06/21 10:40:56;;;;;;;;;;;20.60;61.90;;;;;;5066964;28;20011;-79
2022/06/21 10:43:40;;;;;;;;;;;20.70;61.70;;;;;;5061320;28;19913;-78
2022/06/21 10:46:10;;;;;;;;;;;20.70;61.70;;;;;;5060446;28;19920;-79
2022/06/21 10:48:55;;;;;;;;;;;20.70;61.70;;;;;;5048717;28;19913;-78
2022/06/21 10:51:29;;;;;;;;;;;20.70;61.80;;;;;;5063062;28;19917;-78
2022/06/21 10:54:07;;;;;;;;;;;20.70;61.70;;;;;;5053067;28;19912;-78
2022/06/21 10:57:11;;;;;;;;;;;20.90;61.60;;;;;;5056910;28;19921;-79
2022/06/21 11:02:49;;;;;;;;;;;21.20;61.20;;;;;;5066304;28;20011;-78
2022/06/21 11:05:14;;;;;;;;;;;21.20;60.90;;;;;;5062638;28;20478;-79
2022/06/21 11:07:46;;;;;;;;;;;21.40;61.00;;;;;;5064033;28;19916;-78
2022/06/21 11:10:19;;;;;;;;;;;21.40;60.90;;;;;;5061080;28;20334;-78
2022/06/21 11:12:56;;;;;;;;;;;21.40;60.90;;;;;;5057782;28;19913;-78
2022/06/21 11:15:24;;;;;;;;;;;21.50;61.00;;;;;;5056360;28;19916;-78
2022/06/21 11:17:50;;;;;;;;;;;21.50;61.00;;;;;;5063634;28;20387;-78
2022/06/21 11:20:20;;;;;;;;;;;21.50;61.00;;;;;;5059552;28;19912;-78
2022/06/21 11:22:55;;;;;;;;;;;21.60;61.10;;;;;;5061795;28;19909;-78
2022/06/21 11:25:20;;;;;;;;;;;21.60;61.10;;;;;;5059102;28;19927;-78
2022/06/21 11:27:49;;;;;;;;;;;21.60;61.00;;;;;;5057305;28;19909;-78
2022/06/21 11:30:22;;;;;;;;;;;21.60;61.80;;;;;;5055855;28;19920;-78
2022/06/21 11:33:06;;;;;;;;;;;21.60;61.30;;;;;;5061508;28;20265;-78
2022/06/21 11:35:34;;;;;;;;;;;21.60;61.30;;;;;;5060686;28;19908;-78
2022/06/21 11:38:00;;;;;;;;;;;21.60;61.50;;;;;;5062198;28;19942;-78
2022/06/21 11:40:32;;;;;;;;;;;21.60;61.50;;;;;;5061453;28;19912;-78
2022/06/21 11:42:58;;;;;;;;;;;21.70;61.60;;;;;;5062655;28;20007;-78
2022/06/21 11:45:41;;;;;;;;;;;21.60;61.70;;;;;;5057040;28;20003;-78
2022/06/21 11:48:36;;;;;;;;;;;21.70;61.70;;;;;;5051567;28;19912;-78
2022/06/21 11:51:04;;;;;;;;;;;21.70;61.60;;;;;;5045028;28;19913;-78
2022/06/21 11:53:36;;;;;;;;;;;21.70;61.60;;;;;;5053356;28;19928;-78
2022/06/21 11:56:07;;;;;;;;;;;21.80;61.60;;;;;;5063419;28;19944;-78
2022/06/21 11:58:47;;;;;;;;;;;21.80;61.50;;;;;;5053909;28;20038;-78
2022/06/21 12:01:28;;;;;;;;;;;21.90;61.50;;;;;;5060571;28;19923;-78
2022/06/21 12:04:12;;;;;;;;;;;21.90;61.30;;;;;;5063070;28;20103;-78
2022/06/21 12:06:53;;;;;;;;;;;22.00;61.30;;;;;;5061703;28;20455;-78
2022/06/21 12:09:24;;;;;;;;;;;22.00;61.20;;;;;;5060562;28;20026;-78
2022/06/21 12:12:04;;;;;;;;;;;22.00;61.10;;;;;;5061867;28;19913;-78
2022/06/21 12:14:37;;;;;;;;;;;22.10;61.10;;;;;;5059403;28;20455;-78
2022/06/21 12:17:03;;;;;;;;;;;22.00;60.90;;;;;;5062184;28;20412;-78
2022/06/21 12:19:30;;;;;;;;;;;22.00;61.00;;;;;;5076615;28;19912;-78
2022/06/21 12:22:06;;;;;;;;;;;22.00;61.10;;;;;;5051803;28;19920;-78
2022/06/21 12:24:32;;;;;;;;;;;22.00;61.10;;;;;;5064131;28;19920;-78
2022/06/21 12:26:57;;;;;;;;;;;22.10;61.20;;;;;;5060999;28;19913;-78
2022/06/21 12:29:23;;;;;;;;;;;22.10;61.10;;;;;;5063615;28;19921;-78
2022/06/21 12:31:50;;;;;;;;;;;22.10;61.10;;;;;;5060108;28;19920;-78
2022/06/21 12:34:16;;;;;;;;;;;22.10;61.20;;;;;;5063644;28;20403;-78
2022/06/21 12:36:43;;;;;;;;;;;22.10;61.20;;;;;;5058516;28;19991;-78
2022/06/21 12:39:28;;;;;;;;;;;22.10;61.10;;;;;;5061398;28;19919;-78
2022/06/21 12:41:54;;;;;;;;;;;22.30;61.10;;;;;;5057544;28;20003;-78
2022/06/21 12:44:38;;;;;;;;;;;22.50;60.80;;;;;;5057601;28;19999;-78
2022/06/21 12:47:19;;;;;;;;;;;22.60;60.70;;;;;;5054781;28;19920;-78
2022/06/21 12:49:48;;;;;;;;;;;22.70;60.40;;;;;;5060044;28;19913;-79
2022/06/21 12:52:16;;;;;;;;;;;22.90;60.10;;;;;;5053650;28;19919;-79
2022/06/21 12:54:44;;;;;;;;;;;23.00;59.90;;;;;;5053676;28;19959;-79
2022/06/21 12:57:22;;;;;;;;;;;23.10;59.50;;;;;;5076415;28;20015;-79
2022/06/21 13:00:05;;;;;;;;;;;23.20;59.30;;;;;;5059024;28;20387;-78
2022/06/21 13:02:31;;;;;;;;;;;23.30;59.10;;;;;;5060273;28;19955;-78
2022/06/21 13:04:56;;;;;;;;;;;23.40;58.90;;;;;;5064390;28;19963;-79
2022/06/21 13:07:33;;;;;;;;;;;23.50;59.20;;;;;;5057692;28;20392;-79
2022/06/21 13:10:09;;;;;;;;;;;23.60;59.20;;;;;;5058279;28;19999;-79
2022/06/21 13:12:37;;;;;;;;;;;23.60;59.20;;;;;;5061519;28;20739;-79
2022/06/21 13:15:18;;;;;;;;;;;23.60;59.20;;;;;;5077002;28;19913;-78
2022/06/21 13:17:52;;;;;;;;;;;23.60;59.30;;;;;;5053122;28;19913;-78
2022/06/21 13:20:24;;;;;;;;;;;23.60;59.30;;;;;;5077450;28;20253;-79
2022/06/21 13:22:56;;;;;;;;;;;23.60;59.20;;;;;;5049414;28;19912;-79
2022/06/21 13:25:30;;;;;;;;;;;23.70;59.20;;;;;;5065484;28;19917;-78
2022/06/21 13:28:02;;;;;;;;;;;23.80;59.10;;;;;;5060404;28;19917;-79
2022/06/21 13:30:46;;;;;;;;;;;23.90;59.10;;;;;;5060591;28;19921;-79
2022/06/21 13:33:19;;;;;;;;;;;23.90;58.90;;;;;;5061214;28;19931;-79
2022/06/21 13:35:54;;;;;;;;;;;24.10;58.70;;;;;;5060702;28;19912;-79
2022/06/21 13:38:20;;;;;;;;;;;24.10;58.50;;;;;;5065434;28;20552;-79
2022/06/21 13:40:50;;;;;;;;;;;24.30;58.50;;;;;;5058911;28;19922;-79
2022/06/21 13:43:24;;;;;;;;;;;24.30;58.50;;;;;;5060281;28;19962;-79
2022/06/21 13:45:52;;;;;;;;;;;24.40;58.20;;;;;;5066923;28;19921;-79
2022/06/21 13:48:39;;;;;;;;;;;24.40;58.20;;;;;;5063730;28;19913;-79
2022/06/21 13:51:23;;;;;;;;;;;24.40;58.30;;;;;;5066954;28;20550;-78
2022/06/21 13:53:51;;;;;;;;;;;24.50;58.30;;;;;;5066729;28;20303;-79
2022/06/21 13:56:23;;;;;;;;;;;24.50;58.40;;;;;;5061794;28;19916;-78
2022/06/21 13:58:52;;;;;;;;;;;24.70;57.90;;;;;;5057324;28;19919;-79
2022/06/21 14:01:21;;;;;;;;;;;24.80;58.20;;;;;;5056476;28;19978;-79
2022/06/21 14:03:55;;;;;;;;;;;25.00;57.60;;;;;;5048319;28;19916;-79
2022/06/21 14:06:24;;;;;;;;;;;25.20;57.40;;;;;;5065901;28;20006;-79
2022/06/21 14:08:59;;;;;;;;;;;25.30;57.00;;;;;;5060879;28;20428;-79
2022/06/21 14:11:33;;;;;;;;;;;25.40;56.90;;;;;;5054197;28;19909;-79
2022/06/21 14:14:15;;;;;;;;;;;25.60;56.70;;;;;;5048718;28;19923;-79
2022/06/21 14:16:53;;;;;;;;;;;25.60;56.50;;;;;;5048714;28;19913;-79
2022/06/21 14:19:19;;;;;;;;;;;25.70;56.50;;;;;;5067057;28;19916;-79
2022/06/21 14:21:56;;;;;;;;;;;25.90;56.30;;;;;;5059491;28;19913;-79
2022/06/21 14:24:42;;;;;;;;;;;26.00;56.20;;;;;;5062492;28;19908;-79
2022/06/21 14:27:07;;;;;;;;;;;26.20;56.10;;;;;;5060051;28;19908;-79
2022/06/21 14:29:49;;;;;;;;;;;26.20;56.10;;;;;;5066269;28;19935;-79
2022/06/21 14:32:17;;;;;;;;;;;26.20;56.10;;;;;;5053500;28;19923;-79
2022/06/21 14:34:43;;;;;;;;;;;26.20;56.20;;;;;;5046051;28;19920;-79
2022/06/21 14:37:14;;;;;;;;;;;26.20;56.50;;;;;;5052589;28;19913;-79
2022/06/21 14:39:49;;;;;;;;;;;26.10;56.50;;;;;;5065088;28;20599;-78
2022/06/21 14:42:22;;;;;;;;;;;26.10;56.50;;;;;;5066201;28;19912;-78
2022/06/21 14:45:03;;;;;;;;;;;26.00;57.00;;;;;;5062653;28;19987;-78
2022/06/21 14:47:41;;;;;;;;;;;26.00;56.90;;;;;;5065436;28;19927;-78
2022/06/21 14:50:12;;;;;;;;;;;26.10;56.70;;;;;;5053102;28;19913;-78
2022/06/21 14:52:49;;;;;;;;;;;26.00;56.60;;;;;;5054434;28;19919;-78
2022/06/21 14:55:15;;;;;;;;;;;26.00;56.90;;;;;;5065007;28;19912;-78
2022/06/21 14:57:53;;;;;;;;;;;26.00;57.10;;;;;;5064541;28;19923;-78
2022/06/21 15:00:23;;;;;;;;;;;26.00;57.10;;;;;;5049714;28;19912;-78
2022/06/21 15:03:07;;;;;;;;;;;26.00;57.00;;;;;;5065605;28;19912;-78
2022/06/21 15:05:41;;;;;;;;;;;25.90;57.00;;;;;;5059507;28;20049;-78
2022/06/21 15:08:31;;;;;;;;;;;25.90;57.20;;;;;;5059563;28;19912;-78
2022/06/21 15:11:02;;;;;;;;;;;25.90;57.20;;;;;;5057422;28;20750;-78
2022/06/21 15:13:32;;;;;;;;;;;25.80;57.20;;;;;;5053036;28;19958;-78
2022/06/21 15:15:58;;;;;;;;;;;25.80;57.20;;;;;;5047988;28;19912;-78
2022/06/21 15:18:28;;;;;;;;;;;25.80;57.40;;;;;;5063786;28;19967;-78
2022/06/21 15:21:00;;;;;;;;;;;25.70;57.40;;;;;;5054647;28;19962;-78
2022/06/21 15:23:42;;;;;;;;;;;25.70;57.50;;;;;;5055492;28;19916;-78
2022/06/21 15:26:20;;;;;;;;;;;25.60;57.50;;;;;;5058311;28;19927;-78
2022/06/21 15:28:49;;;;;;;;;;;25.60;57.60;;;;;;5059153;28;19977;-78
2022/06/21 15:31:17;;;;;;;;;;;25.60;57.70;;;;;;5050726;28;19913;-78
2022/06/21 15:33:58;;;;;;;;;;;25.50;57.80;;;;;;5045682;28;20708;-78
2022/06/21 15:36:42;;;;;;;;;;;25.50;57.90;;;;;;5057148;28;20012;-78
2022/06/21 15:39:19;;;;;;;;;;;25.50;58.00;;;;;;5053804;28;20194;-78
2022/06/21 15:41:51;;;;;;;;;;;25.40;58.10;;;;;;5046554;28;19912;-78
2022/06/21 15:44:31;;;;;;;;;;;25.40;58.20;;;;;;5058528;28;19909;-78
2022/06/21 15:52:32;;;;;;;;;;;25.30;58.40;;;;;;5053843;28;19920;-78
2022/06/21 15:55:07;;;;;;;;;;;25.30;58.50;;;;;;5057740;28;19920;-78
2022/06/21 15:57:39;;;;;;;;;;;25.30;58.40;;;;;;5056679;28;19912;-78
2022/06/21 16:00:12;;;;;;;;;;;25.30;58.30;;;;;;5059062;28;19913;-77
2022/06/21 16:02:41;;;;;;;;;;;25.30;58.30;;;;;;5045956;28;19908;-78
2022/06/21 16:05:06;;;;;;;;;;;25.40;58.30;;;;;;5053786;28;19916;-78
2022/06/21 16:07:34;;;;;;;;;;;25.50;58.10;;;;;;5056321;28;20011;-78
2022/06/21 16:10:00;;;;;;;;;;;25.60;58.00;;;;;;5053978;28;19913;-78
2022/06/21 16:12:34;;;;;;;;;;;25.70;57.80;;;;;;5047080;28;20015;-78